Du har inga inställningar för hoppväder.nu

Hoppväder.nu

Senast uppdaterat 07:23

UTC-tid

2020-04-08 kl. 05:23


Sol och måne

Solen går upp 6:11 och går ner 21:00 (beräknade cirkatider)
Nästa fullmåne blir om 29 dagar (2020-05-07)

METAR

ESMX (Växjö)
(33 minuter sedan)
ESMX 080450Z AUTO 00000KT 9999 NCD M02/M03 Q1030=



ESMT (Halmstad)
(33 minuter sedan)
ESMT 080450Z AUTO 06004KT 9999 NCD 01/M00 Q1030=



ESGJ (Jönköping)
(33 minuter sedan)
ESGJ 080450Z 21007KT CAVOK 01/M01 Q1028=



ESMK (Everöd)
(33 minuter sedan)
ESMK 080450Z AUTO 24002KT 9999 NCD M01/M02 Q1031=






TAF

ESMX (Växjö)
ESMX



ESMT (Halmstad)
(22 minuter sedan)
ESMT 080501Z 0806/0815 06005KT CAVOK BECMG 0807/0810 20012KT=



ESGJ (Jönköping)
(-7 minuter sedan)
ESGJ 080530Z 0806/0815 22010KT CAVOK BECMG 0810/0812 23015G25KT=



ESMK (Everöd)
ESMK





Kodnycklar till TAF och METAR






LHP

(Feringe är område se22g i Delområde 2)

Översikt

ÖVERSIKT FÖR OMRÅDE se2 UTFÄRDAD 080342

GÄLLANDE DEN 8 APRIL 2020 MELLAN 04 OCH 12 UTC


Väderöversikt

En högtrycksrygg över södra Sverige rör sig österut. Frisk sydvästlig luftström över Svealand.

Sikt under 5 kilometer eller molnbas under 1000 fot
Väntas inte förekomma under perioden.

Måttlig eller svår isbildning
Väntas inte förekomma under perioden

Måttlig eller svår turbulens
08-12UTC: Hela området utom se22


Delområde 2

PROGNOS FÖR OMRÅDE se22 UTFÄRDAD 080342
GÄLLANDE DEN 8 APRIL 2020 MELLAN 04 OCH 12 UTC

Måttlig eller svår turbulens
04-12UTC: I hela området: Väntas inte förekomma under perioden

Måttlig eller svår isbildning
04-12UTC: I hela området: Väntas inte förekomma under perioden

Sikt/Väder/Moln
04-12UTC: I hela området: Sikt >8km. Molnbas >2000ft.

Molnöversida
04-12UTC: I hela området: Ingen prognos

CB/TCU Moln
04-12UTC: I hela området: Väntas inte förekomma under perioden

Nollgradersisoterm
04-12UTC: Noll grader FL050 - FL090.

Vind vid marken
04-06UTC: Område se22e: SV/0-5 knop, byar upp till 11 knop.
Område se22d: SV/0-7 knop.
Område se22a: SV-V/1-10 knop, byar upp till 13 knop.
Område se22c: SV/0-8 knop.
Område se22b: SV-V/0-4 knop.
Område se22h,se22l: Lugnt.
Område se22f: SV-V/0-4 knop, byar upp till 11 knop.
Område se22g: S-SV/0-5 knop.

04-08UTC: Område se22i,se22k,se22j: Lugnt.

06-08UTC: Område se22a: SV/1-10 knop, byar upp till 14 knop.
Område se22d: S-SV/2-11 knop, byar upp till 13 knop.
Område se22f: SV-V/0-6 knop, byar upp till 15 knop.
Område se22l: S/0-4 knop.
Område se22b: SV/0-5 knop.
Område se22e: SV/1-8 knop, byar upp till 17 knop.
Område se22g: S-SV/1-7 knop, byar upp till 13 knop.
Område se22c: S-SV/2-10 knop.
Område se22h: SV/0-4 knop, byar upp till 11 knop.

08-10UTC: Område se22d: SV/4-10 knop.
Område se22g: SV/4-9 knop, byar upp till 18 knop.
Område se22f: SV-V/5-7 knop, byar upp till 19 knop.
Område se22i: S-SV/3-5 knop, byar upp till 14 knop.
Område se22l: S-SV/2-4 knop.
Område se22a: SV/3-12 knop, byar upp till 17 knop.
Område se22h: SV/4-7 knop, byar upp till 16 knop.
Område se22b: S-SV/3-8 knop, byar upp till 14 knop.
Område se22c: S-SV/4-12 knop.
Område se22k: S-SV/0-7 knop, byar upp till 13 knop.
Område se22e: SV/4-10 knop, byar upp till 21 knop.
Område se22j: SV/3-4 knop.

10-12UTC: Område se22a: S-SV/4-14 knop, byar upp till 19 knop.
Område se22k: S-SV/3-12 knop, byar upp till 18 knop.
Område se22d: SV/4-9 knop.
Område se22l: SV/2-6 knop.
Område se22b: S-SV/3-16 knop, byar upp till 19 knop.
Område se22c: S-SV/5-13 knop, byar upp till 18 knop.
Område se22e: SV/6-11 knop, byar upp till 23 knop.
Område se22f: SV-V/5-8 knop, byar upp till 21 knop.
Område se22g: SV/5-11 knop, byar upp till 20 knop.
Område se22h: SV/4-8 knop, byar upp till 18 knop.
Område se22i: S-SV/4-7 knop, byar upp till 18 knop.
Område se22j: SV/4-6 knop, byar upp till 17 knop.


Genomsnittlig vind och temperatur för området
2000ft:
04-06UTC: 250/11kt +6.
06-08UTC: 250/12kt +5.
08-10UTC: 240/13kt +5.
10-12UTC: 240/11kt +6.

FL50:
04-06UTC: 280/14kt +2.
06-08UTC: 270/12kt +2.
08-10UTC: 250/12kt +2.
10-12UTC: 240/15kt +2.

FL100:
04-06UTC: 270/24kt -3.
06-08UTC: 270/26kt -3.
08-10UTC: 260/25kt -3.
10-12UTC: 250/25kt -3.

Lägsta QNH
1023 hPa.

OBS! endast utbredd måttlig eller svår isbildning och turbulens prognostiseras i LLF.
Avsaknad av isbildning och turbulens i prognosen utesluter inte förekomst av lätt isbildning och turbulens.
För indikation på lätt isbildning, var vänlig kontrollera om prognosen för molntopp ligger högre än nollgradersisotermen.
Förekomst av TCU eller CB medför alltid en risk för måttlig eller svår isbildning och turbulens även om det inte framgår explicit av prognosen.







Spotting

Hur fungerar spotthjälpen och Vindkartan?

Markvind är ca 0-3 m/s.
Vind på 600 m ca 6 m/s.
Vind på 1500 m ca 7 m/s.
Vind på 3000 m ca 12 m/s.
Filip Helge flyger ca 29 m/s över marken på finalen.
Du driver ca 556 m bakåt i frifall. (741 m)
Lämplig spot är 9 sekunder eller 259 m efter gropen.
(16 s eller 461 m)
För små grupper eller ensamhoppare bör man vänta 5-7 sekunder mellan grupperna.
För större grupper bör man vänta 10-13 sekunder mellan grupperna.


Vindkartan

Senast uppdaterad 07:23




All data kommer från LFV.se